sensor_id;sensor_type;location;lat;lon;timestamp;P1;durP1;ratioP1;P2;durP2;ratioP2
10230;SDS011;62604;49.432;8.680;2022-10-15T00:00:11;2.40;;;2.30;;
10230;SDS011;62604;49.432;8.680;2022-10-15T00:02:39;2.60;;;2.40;;
10230;SDS011;62604;49.432;8.680;2022-10-15T00:05:06;2.40;;;2.30;;
10230;SDS011;62604;49.432;8.680;2022-10-15T00:07:34;2.20;;;2.10;;
10230;SDS011;62604;49.432;8.680;2022-10-15T00:10:02;2.60;;;2.40;;
10230;SDS011;62604;49.432;8.680;2022-10-15T00:12:30;2.27;;;2.17;;
10230;SDS011;62604;49.432;8.680;2022-10-15T00:14:57;2.40;;;2.20;;
10230;SDS011;62604;49.432;8.680;2022-10-15T00:17:24;2.30;;;2.20;;
10230;SDS011;62604;49.432;8.680;2022-10-15T00:19:51;2.60;;;2.50;;
10230;SDS011;62604;49.432;8.680;2022-10-15T00:22:18;2.23;;;2.13;;
10230;SDS011;62604;49.432;8.680;2022-10-15T00:24:45;2.40;;;2.20;;
10230;SDS011;62604;49.432;8.680;2022-10-15T00:27:13;2.37;;;2.20;;
10230;SDS011;62604;49.432;8.680;2022-10-15T00:29:40;2.50;;;2.30;;
10230;SDS011;62604;49.432;8.680;2022-10-15T00:32:08;2.53;;;2.40;;
10230;SDS011;62604;49.432;8.680;2022-10-15T00:34:34;2.57;;;2.37;;
10230;SDS011;62604;49.432;8.680;2022-10-15T00:37:01;2.20;;;2.10;;
10230;SDS011;62604;49.432;8.680;2022-10-15T00:39:29;2.27;;;2.17;;
10230;SDS011;62604;49.432;8.680;2022-10-15T00:41:56;1.90;;;1.80;;
10230;SDS011;62604;49.432;8.680;2022-10-15T00:47:15;3.37;;;2.20;;
10230;SDS011;62604;49.432;8.680;2022-10-15T00:49:46;2.10;;;2.00;;
10230;SDS011;62604;49.432;8.680;2022-10-15T00:52:20;2.10;;;2.00;;
10230;SDS011;62604;49.432;8.680;2022-10-15T00:54:51;2.40;;;2.30;;
10230;SDS011;62604;49.432;8.680;2022-10-15T00:57:23;2.40;;;2.30;;
10230;SDS011;62604;49.432;8.680;2022-10-15T00:59:53;2.63;;;2.50;;
10230;SDS011;62604;49.432;8.680;2022-10-15T01:02:26;2.60;;;2.40;;
10230;SDS011;62604;49.432;8.680;2022-10-15T01:04:52;2.60;;;2.40;;
10230;SDS011;62604;49.432;8.680;2022-10-15T01:07:20;2.50;;;2.40;;
10230;SDS011;62604;49.432;8.680;2022-10-15T01:09:48;2.90;;;2.70;;
10230;SDS011;62604;49.432;8.680;2022-10-15T01:12:18;2.60;;;2.50;;
10230;SDS011;62604;49.432;8.680;2022-10-15T01:14:57;3.50;;;2.63;;
10230;SDS011;62604;49.432;8.680;2022-10-15T01:17:31;2.83;;;2.67;;
10230;SDS011;62604;49.432;8.680;2022-10-15T01:20:15;3.13;;;2.93;;
10230;SDS011;62604;49.432;8.680;2022-10-15T01:23:10;2.80;;;2.70;;
10230;SDS011;62604;49.432;8.680;2022-10-15T01:26:12;2.87;;;2.70;;
10230;SDS011;62604;49.432;8.680;2022-10-15T01:28:58;5.53;;;2.87;;
10230;SDS011;62604;49.432;8.680;2022-10-15T01:31:41;3.20;;;3.00;;
10230;SDS011;62604;49.432;8.680;2022-10-15T01:34:15;2.80;;;2.60;;
10230;SDS011;62604;49.432;8.680;2022-10-15T01:36:51;2.67;;;2.47;;
10230;SDS011;62604;49.432;8.680;2022-10-15T01:39:24;2.90;;;2.70;;
10230;SDS011;62604;49.432;8.680;2022-10-15T01:41:56;3.10;;;2.90;;
10230;SDS011;62604;49.432;8.680;2022-10-15T01:44:26;2.80;;;2.60;;
10230;SDS011;62604;49.432;8.680;2022-10-15T01:47:00;2.77;;;2.57;;
10230;SDS011;62604;49.432;8.680;2022-10-15T01:49:30;2.63;;;2.50;;
10230;SDS011;62604;49.432;8.680;2022-10-15T01:52:01;3.17;;;2.97;;
10230;SDS011;62604;49.432;8.680;2022-10-15T01:54:31;2.70;;;2.50;;
10230;SDS011;62604;49.432;8.680;2022-10-15T01:56:59;2.37;;;2.27;;
10230;SDS011;62604;49.432;8.680;2022-10-15T01:59:28;2.70;;;2.50;;
10230;SDS011;62604;49.432;8.680;2022-10-15T02:01:59;2.40;;;2.20;;
10230;SDS011;62604;49.432;8.680;2022-10-15T02:04:27;2.40;;;2.30;;
10230;SDS011;62604;49.432;8.680;2022-10-15T02:06:57;2.60;;;2.40;;
10230;SDS011;62604;49.432;8.680;2022-10-15T02:09:30;1.43;;;1.33;;
10230;SDS011;62604;49.432;8.680;2022-10-15T02:12:08;2.43;;;2.23;;
10230;SDS011;62604;49.432;8.680;2022-10-15T02:14:43;2.90;;;2.80;;
10230;SDS011;62604;49.432;8.680;2022-10-15T02:17:20;2.50;;;2.40;;
10230;SDS011;62604;49.432;8.680;2022-10-15T02:19:53;2.60;;;2.50;;
10230;SDS011;62604;49.432;8.680;2022-10-15T02:22:25;2.80;;;2.60;;
10230;SDS011;62604;49.432;8.680;2022-10-15T02:24:57;1.73;;;1.63;;
10230;SDS011;62604;49.432;8.680;2022-10-15T02:27:29;2.30;;;2.10;;
10230;SDS011;62604;49.432;8.680;2022-10-15T02:29:59;2.70;;;2.50;;
10230;SDS011;62604;49.432;8.680;2022-10-15T02:32:33;2.47;;;2.37;;
10230;SDS011;62604;49.432;8.680;2022-10-15T02:35:05;2.23;;;2.13;;
10230;SDS011;62604;49.432;8.680;2022-10-15T02:37:34;2.20;;;2.00;;
10230;SDS011;62604;49.432;8.680;2022-10-15T02:40:02;2.50;;;2.40;;
10230;SDS011;62604;49.432;8.680;2022-10-15T02:42:30;2.90;;;2.70;;
10230;SDS011;62604;49.432;8.680;2022-10-15T02:44:57;2.87;;;2.77;;
10230;SDS011;62604;49.432;8.680;2022-10-15T02:47:24;4.20;;;2.70;;
10230;SDS011;62604;49.432;8.680;2022-10-15T02:49:53;4.70;;;2.30;;
10230;SDS011;62604;49.432;8.680;2022-10-15T02:52:20;2.60;;;2.40;;
10230;SDS011;62604;49.432;8.680;2022-10-15T02:54:46;2.80;;;2.60;;
10230;SDS011;62604;49.432;8.680;2022-10-15T02:57:13;2.60;;;2.50;;
10230;SDS011;62604;49.432;8.680;2022-10-15T02:59:40;2.60;;;2.50;;
10230;SDS011;62604;49.432;8.680;2022-10-15T03:02:08;2.50;;;2.40;;
10230;SDS011;62604;49.432;8.680;2022-10-15T03:04:35;2.67;;;2.50;;
10230;SDS011;62604;49.432;8.680;2022-10-15T03:07:05;5.03;;;2.53;;
10230;SDS011;62604;49.432;8.680;2022-10-15T03:09:32;2.80;;;2.60;;
10230;SDS011;62604;49.432;8.680;2022-10-15T03:11:59;2.73;;;2.40;;
10230;SDS011;62604;49.432;8.680;2022-10-15T03:14:26;2.83;;;2.63;;
10230;SDS011;62604;49.432;8.680;2022-10-15T03:16:53;2.83;;;2.63;;
10230;SDS011;62604;49.432;8.680;2022-10-15T03:19:20;2.30;;;2.20;;
10230;SDS011;62604;49.432;8.680;2022-10-15T03:21:47;3.33;;;2.30;;
10230;SDS011;62604;49.432;8.680;2022-10-15T03:24:15;2.63;;;2.00;;
10230;SDS011;62604;49.432;8.680;2022-10-15T03:26:43;1.90;;;1.80;;
10230;SDS011;62604;49.432;8.680;2022-10-15T03:29:10;2.70;;;2.60;;
10230;SDS011;62604;49.432;8.680;2022-10-15T03:31:37;2.60;;;2.40;;
10230;SDS011;62604;49.432;8.680;2022-10-15T03:34:05;2.67;;;2.57;;
10230;SDS011;62604;49.432;8.680;2022-10-15T03:36:31;2.43;;;2.33;;
10230;SDS011;62604;49.432;8.680;2022-10-15T03:38:58;2.93;;;2.73;;
10230;SDS011;62604;49.432;8.680;2022-10-15T03:41:27;2.80;;;2.60;;
10230;SDS011;62604;49.432;8.680;2022-10-15T03:43:54;3.23;;;3.03;;
10230;SDS011;62604;49.432;8.680;2022-10-15T03:46:26;5.63;;;3.20;;
10230;SDS011;62604;49.432;8.680;2022-10-15T03:48:53;3.40;;;3.20;;
10230;SDS011;62604;49.432;8.680;2022-10-15T03:51:20;3.00;;;2.80;;
10230;SDS011;62604;49.432;8.680;2022-10-15T03:53:47;3.00;;;2.80;;
10230;SDS011;62604;49.432;8.680;2022-10-15T03:56:15;3.17;;;2.97;;
10230;SDS011;62604;49.432;8.680;2022-10-15T03:58:43;3.10;;;2.90;;
10230;SDS011;62604;49.432;8.680;2022-10-15T04:01:10;2.90;;;2.70;;
10230;SDS011;62604;49.432;8.680;2022-10-15T04:03:38;2.97;;;2.77;;
10230;SDS011;62604;49.432;8.680;2022-10-15T04:06:06;2.70;;;2.50;;
10230;SDS011;62604;49.432;8.680;2022-10-15T04:08:33;4.30;;;3.20;;
10230;SDS011;62604;49.432;8.680;2022-10-15T04:11:01;3.42;;;2.80;;
10230;SDS011;62604;49.432;8.680;2022-10-15T04:13:28;2.90;;;2.70;;
10230;SDS011;62604;49.432;8.680;2022-10-15T04:15:57;2.80;;;2.60;;
10230;SDS011;62604;49.432;8.680;2022-10-15T04:18:24;3.10;;;2.90;;
10230;SDS011;62604;49.432;8.680;2022-10-15T04:20:51;2.55;;;2.45;;
10230;SDS011;62604;49.432;8.680;2022-10-15T04:23:18;2.70;;;2.60;;
10230;SDS011;62604;49.432;8.680;2022-10-15T04:25:45;2.85;;;2.65;;
10230;SDS011;62604;49.432;8.680;2022-10-15T04:28:13;3.37;;;2.57;;
10230;SDS011;62604;49.432;8.680;2022-10-15T04:30:40;2.80;;;2.70;;
10230;SDS011;62604;49.432;8.680;2022-10-15T04:33:09;2.87;;;2.67;;
10230;SDS011;62604;49.432;8.680;2022-10-15T04:35:36;2.83;;;2.63;;
10230;SDS011;62604;49.432;8.680;2022-10-15T04:38:03;2.90;;;2.70;;
10230;SDS011;62604;49.432;8.680;2022-10-15T04:40:30;3.47;;;2.90;;
10230;SDS011;62604;49.432;8.680;2022-10-15T04:42:57;2.93;;;2.73;;
10230;SDS011;62604;49.432;8.680;2022-10-15T04:45:24;4.00;;;3.03;;
10230;SDS011;62604;49.432;8.680;2022-10-15T04:47:51;3.87;;;3.60;;
10230;SDS011;62604;49.432;8.680;2022-10-15T04:50:19;3.00;;;2.80;;
10230;SDS011;62604;49.432;8.680;2022-10-15T04:52:46;3.10;;;2.87;;
10230;SDS011;62604;49.432;8.680;2022-10-15T04:55:13;2.93;;;2.73;;
10230;SDS011;62604;49.432;8.680;2022-10-15T04:57:40;2.70;;;2.50;;
10230;SDS011;62604;49.432;8.680;2022-10-15T05:00:09;2.80;;;2.70;;
10230;SDS011;62604;49.432;8.680;2022-10-15T05:02:40;2.80;;;2.70;;
10230;SDS011;62604;49.432;8.680;2022-10-15T05:05:07;3.00;;;2.80;;
10230;SDS011;62604;49.432;8.680;2022-10-15T05:07:36;2.97;;;2.77;;
10230;SDS011;62604;49.432;8.680;2022-10-15T05:10:04;3.03;;;2.93;;
10230;SDS011;62604;49.432;8.680;2022-10-15T05:12:31;2.90;;;2.80;;
10230;SDS011;62604;49.432;8.680;2022-10-15T05:14:58;3.10;;;2.90;;
10230;SDS011;62604;49.432;8.680;2022-10-15T05:17:25;3.10;;;2.90;;
10230;SDS011;62604;49.432;8.680;2022-10-15T05:19:52;3.10;;;2.90;;
10230;SDS011;62604;49.432;8.680;2022-10-15T05:22:19;3.17;;;2.87;;
10230;SDS011;62604;49.432;8.680;2022-10-15T05:24:47;2.97;;;2.77;;
10230;SDS011;62604;49.432;8.680;2022-10-15T05:27:14;2.70;;;2.60;;
10230;SDS011;62604;49.432;8.680;2022-10-15T05:29:41;3.17;;;2.73;;
10230;SDS011;62604;49.432;8.680;2022-10-15T05:32:08;2.90;;;2.70;;
10230;SDS011;62604;49.432;8.680;2022-10-15T05:34:35;2.70;;;2.60;;
10230;SDS011;62604;49.432;8.680;2022-10-15T05:37:02;3.10;;;2.90;;
10230;SDS011;62604;49.432;8.680;2022-10-15T05:39:29;2.90;;;2.70;;
10230;SDS011;62604;49.432;8.680;2022-10-15T05:41:58;3.00;;;2.80;;
10230;SDS011;62604;49.432;8.680;2022-10-15T05:44:25;2.90;;;2.80;;
10230;SDS011;62604;49.432;8.680;2022-10-15T05:46:52;3.00;;;2.80;;
10230;SDS011;62604;49.432;8.680;2022-10-15T05:49:19;3.37;;;3.17;;
10230;SDS011;62604;49.432;8.680;2022-10-15T05:51:46;3.30;;;3.10;;
10230;SDS011;62604;49.432;8.680;2022-10-15T05:54:13;3.00;;;2.90;;
10230;SDS011;62604;49.432;8.680;2022-10-15T05:56:40;3.03;;;2.92;;
10230;SDS011;62604;49.432;8.680;2022-10-15T05:59:08;3.28;;;3.08;;
10230;SDS011;62604;49.432;8.680;2022-10-15T06:01:35;3.40;;;3.20;;
10230;SDS011;62604;49.432;8.680;2022-10-15T06:04:03;3.08;;;2.97;;
10230;SDS011;62604;49.432;8.680;2022-10-15T06:06:30;3.40;;;3.20;;
10230;SDS011;62604;49.432;8.680;2022-10-15T06:08:57;3.70;;;3.50;;
10230;SDS011;62604;49.432;8.680;2022-10-15T06:11:25;3.60;;;3.40;;
10230;SDS011;62604;49.432;8.680;2022-10-15T06:13:53;3.37;;;3.17;;
10230;SDS011;62604;49.432;8.680;2022-10-15T06:16:22;2.90;;;2.80;;
10230;SDS011;62604;49.432;8.680;2022-10-15T06:18:49;3.60;;;3.40;;
10230;SDS011;62604;49.432;8.680;2022-10-15T06:21:17;3.20;;;3.00;;
10230;SDS011;62604;49.432;8.680;2022-10-15T06:23:46;3.63;;;3.40;;
10230;SDS011;62604;49.432;8.680;2022-10-15T06:26:13;4.60;;;3.27;;
10230;SDS011;62604;49.432;8.680;2022-10-15T06:28:40;3.57;;;3.37;;
10230;SDS011;62604;49.432;8.680;2022-10-15T06:31:07;3.47;;;3.27;;
10230;SDS011;62604;49.432;8.680;2022-10-15T06:33:36;3.50;;;3.30;;
10230;SDS011;62604;49.432;8.680;2022-10-15T06:36:04;3.50;;;3.30;;
10230;SDS011;62604;49.432;8.680;2022-10-15T06:38:38;3.87;;;3.53;;
10230;SDS011;62604;49.432;8.680;2022-10-15T06:41:08;4.10;;;3.80;;
10230;SDS011;62604;49.432;8.680;2022-10-15T06:43:35;3.83;;;3.63;;
10230;SDS011;62604;49.432;8.680;2022-10-15T06:46:03;3.73;;;3.53;;
10230;SDS011;62604;49.432;8.680;2022-10-15T06:48:31;3.30;;;3.10;;
10230;SDS011;62604;49.432;8.680;2022-10-15T06:51:00;4.13;;;3.77;;
10230;SDS011;62604;49.432;8.680;2022-10-15T06:53:27;3.77;;;3.47;;
10230;SDS011;62604;49.432;8.680;2022-10-15T06:55:56;3.60;;;3.30;;
10230;SDS011;62604;49.432;8.680;2022-10-15T06:58:23;3.57;;;3.37;;
10230;SDS011;62604;49.432;8.680;2022-10-15T07:00:50;3.97;;;3.60;;
10230;SDS011;62604;49.432;8.680;2022-10-15T07:03:17;4.00;;;3.50;;
10230;SDS011;62604;49.432;8.680;2022-10-15T07:05:44;3.90;;;3.70;;
10230;SDS011;62604;49.432;8.680;2022-10-15T07:08:14;4.00;;;3.70;;
10230;SDS011;62604;49.432;8.680;2022-10-15T07:10:41;3.58;;;3.38;;
10230;SDS011;62604;49.432;8.680;2022-10-15T07:13:08;4.53;;;3.60;;
10230;SDS011;62604;49.432;8.680;2022-10-15T07:15:35;3.70;;;3.50;;
10230;SDS011;62604;49.432;8.680;2022-10-15T07:18:02;4.00;;;3.70;;
10230;SDS011;62604;49.432;8.680;2022-10-15T07:20:30;3.80;;;3.60;;
10230;SDS011;62604;49.432;8.680;2022-10-15T07:22:58;3.73;;;3.43;;
10230;SDS011;62604;49.432;8.680;2022-10-15T07:25:27;3.57;;;3.37;;
10230;SDS011;62604;49.432;8.680;2022-10-15T07:27:55;3.70;;;3.42;;
10230;SDS011;62604;49.432;8.680;2022-10-15T07:30:22;3.40;;;3.20;;
10230;SDS011;62604;49.432;8.680;2022-10-15T07:32:52;3.53;;;3.22;;
10230;SDS011;62604;49.432;8.680;2022-10-15T07:35:20;3.45;;;3.25;;
10230;SDS011;62604;49.432;8.680;2022-10-15T07:37:47;3.40;;;3.20;;
10230;SDS011;62604;49.432;8.680;2022-10-15T07:40:15;3.45;;;3.25;;
10230;SDS011;62604;49.432;8.680;2022-10-15T07:42:43;3.80;;;3.50;;
10230;SDS011;62604;49.432;8.680;2022-10-15T07:45:16;3.57;;;3.37;;
10230;SDS011;62604;49.432;8.680;2022-10-15T07:47:43;3.20;;;3.00;;
10230;SDS011;62604;49.432;8.680;2022-10-15T07:50:10;3.47;;;3.27;;
10230;SDS011;62604;49.432;8.680;2022-10-15T07:52:37;3.50;;;3.30;;
10230;SDS011;62604;49.432;8.680;2022-10-15T07:55:04;4.50;;;3.43;;
10230;SDS011;62604;49.432;8.680;2022-10-15T07:57:32;3.40;;;3.20;;
10230;SDS011;62604;49.432;8.680;2022-10-15T08:00:01;3.35;;;3.05;;
10230;SDS011;62604;49.432;8.680;2022-10-15T08:02:29;3.28;;;3.08;;
10230;SDS011;62604;49.432;8.680;2022-10-15T08:04:56;3.50;;;3.30;;
10230;SDS011;62604;49.432;8.680;2022-10-15T08:07:23;3.50;;;3.28;;
10230;SDS011;62604;49.432;8.680;2022-10-15T08:09:49;3.00;;;2.80;;
10230;SDS011;62604;49.432;8.680;2022-10-15T08:12:17;2.60;;;2.40;;
10230;SDS011;62604;49.432;8.680;2022-10-15T08:14:45;3.40;;;3.10;;
10230;SDS011;62604;49.432;8.680;2022-10-15T08:17:13;2.00;;;1.80;;
10230;SDS011;62604;49.432;8.680;2022-10-15T08:19:40;2.13;;;1.80;;
10230;SDS011;62604;49.432;8.680;2022-10-15T08:22:07;3.92;;;1.98;;
10230;SDS011;62604;49.432;8.680;2022-10-15T08:24:36;2.28;;;1.80;;
10230;SDS011;62604;49.432;8.680;2022-10-15T08:27:04;3.65;;;3.28;;
10230;SDS011;62604;49.432;8.680;2022-10-15T08:29:31;2.73;;;2.53;;
10230;SDS011;62604;49.432;8.680;2022-10-15T08:31:58;3.70;;;3.40;;
10230;SDS011;62604;49.432;8.680;2022-10-15T08:34:26;3.30;;;3.10;;
10230;SDS011;62604;49.432;8.680;2022-10-15T08:36:53;3.50;;;3.30;;
10230;SDS011;62604;49.432;8.680;2022-10-15T08:39:20;4.28;;;3.60;;
10230;SDS011;62604;49.432;8.680;2022-10-15T08:41:48;3.37;;;3.17;;
10230;SDS011;62604;49.432;8.680;2022-10-15T08:44:19;3.67;;;3.38;;
10230;SDS011;62604;49.432;8.680;2022-10-15T08:46:51;3.67;;;3.37;;
10230;SDS011;62604;49.432;8.680;2022-10-15T08:49:23;3.40;;;3.10;;
10230;SDS011;62604;49.432;8.680;2022-10-15T08:52:00;3.43;;;3.10;;
10230;SDS011;62604;49.432;8.680;2022-10-15T08:54:33;3.28;;;3.08;;
10230;SDS011;62604;49.432;8.680;2022-10-15T08:57:06;3.37;;;3.17;;
10230;SDS011;62604;49.432;8.680;2022-10-15T08:59:44;3.70;;;3.43;;
10230;SDS011;62604;49.432;8.680;2022-10-15T09:02:20;3.22;;;3.03;;
10230;SDS011;62604;49.432;8.680;2022-10-15T09:04:54;3.15;;;2.95;;
10230;SDS011;62604;49.432;8.680;2022-10-15T09:07:30;3.07;;;2.87;;
10230;SDS011;62604;49.432;8.680;2022-10-15T09:10:05;3.45;;;3.15;;
10230;SDS011;62604;49.432;8.680;2022-10-15T09:12:45;3.53;;;2.80;;
10230;SDS011;62604;49.432;8.680;2022-10-15T09:15:20;3.80;;;3.50;;
10230;SDS011;62604;49.432;8.680;2022-10-15T09:17:50;3.65;;;3.45;;
10230;SDS011;62604;49.432;8.680;2022-10-15T09:20:24;3.60;;;3.40;;
10230;SDS011;62604;49.432;8.680;2022-10-15T09:22:56;3.30;;;3.10;;
10230;SDS011;62604;49.432;8.680;2022-10-15T09:25:24;3.30;;;3.10;;
10230;SDS011;62604;49.432;8.680;2022-10-15T09:28:00;3.38;;;3.08;;
10230;SDS011;62604;49.432;8.680;2022-10-15T09:30:35;3.90;;;3.60;;
10230;SDS011;62604;49.432;8.680;2022-10-15T09:33:12;3.75;;;3.45;;
10230;SDS011;62604;49.432;8.680;2022-10-15T09:35:46;3.60;;;3.40;;
10230;SDS011;62604;49.432;8.680;2022-10-15T09:38:24;3.97;;;3.58;;
10230;SDS011;62604;49.432;8.680;2022-10-15T09:41:00;3.47;;;3.28;;
10230;SDS011;62604;49.432;8.680;2022-10-15T09:43:40;5.05;;;3.58;;
10230;SDS011;62604;49.432;8.680;2022-10-15T09:46:10;3.63;;;3.35;;
10230;SDS011;62604;49.432;8.680;2022-10-15T09:48:39;3.67;;;3.40;;
10230;SDS011;62604;49.432;8.680;2022-10-15T09:51:17;3.20;;;3.00;;
10230;SDS011;62604;49.432;8.680;2022-10-15T09:53:51;3.00;;;2.80;;
10230;SDS011;62604;49.432;8.680;2022-10-15T09:56:25;3.00;;;2.80;;
10230;SDS011;62604;49.432;8.680;2022-10-15T09:59:00;3.03;;;2.83;;
10230;SDS011;62604;49.432;8.680;2022-10-15T10:01:28;2.90;;;2.70;;
10230;SDS011;62604;49.432;8.680;2022-10-15T10:04:08;2.67;;;2.50;;
10230;SDS011;62604;49.432;8.680;2022-10-15T10:06:43;2.47;;;2.28;;
10230;SDS011;62604;49.432;8.680;2022-10-15T10:09:15;2.70;;;2.50;;
10230;SDS011;62604;49.432;8.680;2022-10-15T10:11:45;2.17;;;2.08;;
10230;SDS011;62604;49.432;8.680;2022-10-15T10:14:21;2.22;;;2.13;;
10230;SDS011;62604;49.432;8.680;2022-10-15T10:17:05;2.67;;;2.47;;
10230;SDS011;62604;49.432;8.680;2022-10-15T10:19:38;3.33;;;2.08;;
10230;SDS011;62604;49.432;8.680;2022-10-15T10:22:11;2.85;;;2.35;;
10230;SDS011;62604;49.432;8.680;2022-10-15T10:24:41;2.42;;;2.22;;
10230;SDS011;62604;49.432;8.680;2022-10-15T10:27:16;2.20;;;2.10;;
10230;SDS011;62604;49.432;8.680;2022-10-15T10:29:51;2.40;;;2.20;;
10230;SDS011;62604;49.432;8.680;2022-10-15T10:32:22;2.00;;;1.90;;
10230;SDS011;62604;49.432;8.680;2022-10-15T10:34:54;2.17;;;1.95;;
10230;SDS011;62604;49.432;8.680;2022-10-15T10:37:25;2.10;;;2.00;;
10230;SDS011;62604;49.432;8.680;2022-10-15T10:39:53;2.63;;;2.42;;
10230;SDS011;62604;49.432;8.680;2022-10-15T10:42:23;1.95;;;1.85;;
10230;SDS011;62604;49.432;8.680;2022-10-15T10:44:53;1.80;;;1.70;;
10230;SDS011;62604;49.432;8.680;2022-10-15T10:47:21;2.13;;;1.80;;
10230;SDS011;62604;49.432;8.680;2022-10-15T10:49:50;2.35;;;2.00;;
10230;SDS011;62604;49.432;8.680;2022-10-15T10:52:21;1.77;;;1.67;;
10230;SDS011;62604;49.432;8.680;2022-10-15T10:54:55;1.70;;;1.60;;
10230;SDS011;62604;49.432;8.680;2022-10-15T10:57:27;1.98;;;1.83;;
10230;SDS011;62604;49.432;8.680;2022-10-15T11:00:02;2.28;;;2.08;;
10230;SDS011;62604;49.432;8.680;2022-10-15T11:02:30;8.00;;;1.80;;
10230;SDS011;62604;49.432;8.680;2022-10-15T11:05:00;1.98;;;1.88;;
10230;SDS011;62604;49.432;8.680;2022-10-15T11:07:30;2.40;;;1.90;;
10230;SDS011;62604;49.432;8.680;2022-10-15T11:10:05;1.80;;;1.70;;
10230;SDS011;62604;49.432;8.680;2022-10-15T11:12:43;3.35;;;2.63;;
10230;SDS011;62604;49.432;8.680;2022-10-15T11:15:23;1.92;;;1.83;;
10230;SDS011;62604;49.432;8.680;2022-10-15T11:18:00;2.90;;;2.45;;
10230;SDS011;62604;49.432;8.680;2022-10-15T11:20:46;2.20;;;2.10;;
10230;SDS011;62604;49.432;8.680;2022-10-15T11:23:27;2.85;;;2.08;;
10230;SDS011;62604;49.432;8.680;2022-10-15T11:26:13;2.00;;;1.90;;
10230;SDS011;62604;49.432;8.680;2022-10-15T11:28:52;1.95;;;1.85;;
10230;SDS011;62604;49.432;8.680;2022-10-15T11:31:40;4.80;;;3.00;;
10230;SDS011;62604;49.432;8.680;2022-10-15T11:34:19;4.10;;;2.90;;
10230;SDS011;62604;49.432;8.680;2022-10-15T11:36:57;2.40;;;2.20;;
10230;SDS011;62604;49.432;8.680;2022-10-15T11:39:40;2.05;;;1.80;;
10230;SDS011;62604;49.432;8.680;2022-10-15T11:42:22;2.20;;;2.00;;
10230;SDS011;62604;49.432;8.680;2022-10-15T11:48:15;1.90;;;1.80;;
10230;SDS011;62604;49.432;8.680;2022-10-15T11:50:50;1.75;;;1.65;;
10230;SDS011;62604;49.432;8.680;2022-10-15T11:53:34;1.83;;;1.63;;
10230;SDS011;62604;49.432;8.680;2022-10-15T11:56:18;1.83;;;1.73;;
10230;SDS011;62604;49.432;8.680;2022-10-15T11:58:49;1.73;;;1.63;;
10230;SDS011;62604;49.432;8.680;2022-10-15T12:01:20;3.17;;;1.90;;
10230;SDS011;62604;49.432;8.680;2022-10-15T12:03:52;1.98;;;1.88;;
10230;SDS011;62604;49.432;8.680;2022-10-15T12:06:23;3.20;;;2.50;;
10230;SDS011;62604;49.432;8.680;2022-10-15T12:08:56;2.38;;;2.28;;
10230;SDS011;62604;49.432;8.680;2022-10-15T12:11:28;5.47;;;2.40;;
10230;SDS011;62604;49.432;8.680;2022-10-15T12:14:06;2.40;;;2.30;;
10230;SDS011;62604;49.432;8.680;2022-10-15T12:16:43;2.20;;;2.10;;
10230;SDS011;62604;49.432;8.680;2022-10-15T12:19:15;2.30;;;2.20;;
10230;SDS011;62604;49.432;8.680;2022-10-15T12:21:59;2.58;;;2.42;;
10230;SDS011;62604;49.432;8.680;2022-10-15T12:24:50;2.38;;;2.28;;
10230;SDS011;62604;49.432;8.680;2022-10-15T12:27:27;2.30;;;2.20;;
10230;SDS011;62604;49.432;8.680;2022-10-15T12:32:56;2.72;;;2.53;;
10230;SDS011;62604;49.432;8.680;2022-10-15T12:35:27;2.40;;;2.30;;
10230;SDS011;62604;49.432;8.680;2022-10-15T12:38:07;2.53;;;2.40;;
10230;SDS011;62604;49.432;8.680;2022-10-15T12:40:36;2.13;;;2.03;;
10230;SDS011;62604;49.432;8.680;2022-10-15T12:43:12;2.53;;;2.33;;
10230;SDS011;62604;49.432;8.680;2022-10-15T12:45:47;2.20;;;2.00;;
10230;SDS011;62604;49.432;8.680;2022-10-15T12:48:20;2.15;;;2.05;;
10230;SDS011;62604;49.432;8.680;2022-10-15T12:53:57;2.10;;;1.90;;
10230;SDS011;62604;49.432;8.680;2022-10-15T12:56:34;3.28;;;1.60;;
10230;SDS011;62604;49.432;8.680;2022-10-15T12:59:14;3.10;;;2.15;;
10230;SDS011;62604;49.432;8.680;2022-10-15T13:01:56;1.90;;;1.80;;
10230;SDS011;62604;49.432;8.680;2022-10-15T13:04:23;2.00;;;1.90;;
10230;SDS011;62604;49.432;8.680;2022-10-15T13:07:03;2.15;;;1.90;;
10230;SDS011;62604;49.432;8.680;2022-10-15T13:09:31;2.00;;;1.80;;
10230;SDS011;62604;49.432;8.680;2022-10-15T13:11:58;1.70;;;1.60;;
10230;SDS011;62604;49.432;8.680;2022-10-15T13:14:32;1.90;;;1.80;;
10230;SDS011;62604;49.432;8.680;2022-10-15T13:17:04;3.63;;;1.73;;
10230;SDS011;62604;49.432;8.680;2022-10-15T13:19:39;1.85;;;1.75;;
10230;SDS011;62604;49.432;8.680;2022-10-15T13:22:19;2.08;;;1.98;;
10230;SDS011;62604;49.432;8.680;2022-10-15T13:24:47;2.20;;;2.10;;
10230;SDS011;62604;49.432;8.680;2022-10-15T13:27:14;2.75;;;2.55;;
10230;SDS011;62604;49.432;8.680;2022-10-15T13:29:56;3.88;;;2.55;;
10230;SDS011;62604;49.432;8.680;2022-10-15T13:32:25;2.60;;;2.50;;
10230;SDS011;62604;49.432;8.680;2022-10-15T13:34:54;2.40;;;2.30;;
10230;SDS011;62604;49.432;8.680;2022-10-15T13:37:23;2.70;;;2.50;;
10230;SDS011;62604;49.432;8.680;2022-10-15T13:39:55;2.50;;;2.40;;
10230;SDS011;62604;49.432;8.680;2022-10-15T13:42:24;2.50;;;2.40;;
10230;SDS011;62604;49.432;8.680;2022-10-15T13:44:56;2.67;;;2.58;;
10230;SDS011;62604;49.432;8.680;2022-10-15T13:47:29;2.90;;;2.60;;
10230;SDS011;62604;49.432;8.680;2022-10-15T13:50:16;2.38;;;2.28;;
10230;SDS011;62604;49.432;8.680;2022-10-15T13:52:46;2.78;;;2.50;;
10230;SDS011;62604;49.432;8.680;2022-10-15T13:55:18;4.05;;;2.38;;
10230;SDS011;62604;49.432;8.680;2022-10-15T13:57:47;2.80;;;2.60;;
10230;SDS011;62604;49.432;8.680;2022-10-15T14:00:23;3.20;;;2.70;;
10230;SDS011;62604;49.432;8.680;2022-10-15T14:03:08;3.73;;;2.40;;
10230;SDS011;62604;49.432;8.680;2022-10-15T14:05:41;2.73;;;2.63;;
10230;SDS011;62604;49.432;8.680;2022-10-15T14:08:15;2.50;;;2.40;;
10230;SDS011;62604;49.432;8.680;2022-10-15T14:10:44;2.95;;;2.75;;
10230;SDS011;62604;49.432;8.680;2022-10-15T14:13:11;2.50;;;2.40;;
10230;SDS011;62604;49.432;8.680;2022-10-15T14:15:43;2.30;;;2.20;;
10230;SDS011;62604;49.432;8.680;2022-10-15T14:18:14;5.18;;;2.38;;
10230;SDS011;62604;49.432;8.680;2022-10-15T14:20:44;2.72;;;2.42;;
10230;SDS011;62604;49.432;8.680;2022-10-15T14:23:19;2.38;;;2.28;;
10230;SDS011;62604;49.432;8.680;2022-10-15T14:25:53;2.30;;;2.10;;
10230;SDS011;62604;49.432;8.680;2022-10-15T14:28:21;2.30;;;2.20;;
10230;SDS011;62604;49.432;8.680;2022-10-15T14:30:52;3.67;;;2.30;;
10230;SDS011;62604;49.432;8.680;2022-10-15T14:33:30;3.25;;;2.50;;
10230;SDS011;62604;49.432;8.680;2022-10-15T14:36:13;2.50;;;2.20;;
10230;SDS011;62604;49.432;8.680;2022-10-15T14:38:49;4.32;;;2.40;;
10230;SDS011;62604;49.432;8.680;2022-10-15T14:41:22;3.05;;;2.45;;
10230;SDS011;62604;49.432;8.680;2022-10-15T14:44:03;3.78;;;2.15;;
10230;SDS011;62604;49.432;8.680;2022-10-15T14:46:43;2.08;;;1.98;;
10230;SDS011;62604;49.432;8.680;2022-10-15T14:49:20;2.05;;;1.95;;
10230;SDS011;62604;49.432;8.680;2022-10-15T14:51:54;2.00;;;1.90;;
10230;SDS011;62604;49.432;8.680;2022-10-15T14:54:25;1.92;;;1.83;;
10230;SDS011;62604;49.432;8.680;2022-10-15T14:56:58;3.60;;;2.10;;
10230;SDS011;62604;49.432;8.680;2022-10-15T14:59:27;2.00;;;1.90;;
10230;SDS011;62604;49.432;8.680;2022-10-15T15:01:59;2.00;;;1.90;;
10230;SDS011;62604;49.432;8.680;2022-10-15T15:04:35;1.90;;;1.80;;
10230;SDS011;62604;49.432;8.680;2022-10-15T15:07:11;2.28;;;2.08;;
10230;SDS011;62604;49.432;8.680;2022-10-15T15:09:40;2.15;;;1.88;;
10230;SDS011;62604;49.432;8.680;2022-10-15T15:12:17;2.00;;;1.90;;
10230;SDS011;62604;49.432;8.680;2022-10-15T15:14:47;2.35;;;1.95;;
10230;SDS011;62604;49.432;8.680;2022-10-15T15:17:17;2.00;;;1.90;;
10230;SDS011;62604;49.432;8.680;2022-10-15T15:19:46;1.80;;;1.70;;
10230;SDS011;62604;49.432;8.680;2022-10-15T15:22:14;1.75;;;1.65;;